createdAt,value
2022-10-24T00:00:44.194Z,11.70
2022-10-24T00:03:18.773Z,11.71
2022-10-24T00:05:50.767Z,11.73
2022-10-24T00:08:22.102Z,11.74
2022-10-24T00:10:53.263Z,11.75
2022-10-24T00:13:24.094Z,11.77
2022-10-24T00:15:55.159Z,11.79
2022-10-24T00:18:26.581Z,11.80
2022-10-24T00:20:58.784Z,11.82
2022-10-24T00:23:29.649Z,11.82
2022-10-24T00:26:04.650Z,11.83
2022-10-24T00:28:36.730Z,11.84
2022-10-24T00:31:09.350Z,11.86
2022-10-24T00:33:40.614Z,11.89
2022-10-24T00:36:14.869Z,11.91
2022-10-24T00:38:46.323Z,11.93
2022-10-24T00:41:21.073Z,11.96
2022-10-24T00:43:53.687Z,11.98
2022-10-24T00:46:24.462Z,11.99
2022-10-24T00:48:56.535Z,12.01
2022-10-24T00:51:34.200Z,12.02
2022-10-24T00:54:09.771Z,12.00
2022-10-24T00:56:45.042Z,12.00
2022-10-24T00:59:19.174Z,12.01
2022-10-24T01:01:50.558Z,12.01
2022-10-24T01:04:21.479Z,12.00
2022-10-24T01:07:01.201Z,12.00
2022-10-24T01:09:50.527Z,12.01
2022-10-24T01:12:34.475Z,12.01
2022-10-24T01:15:15.461Z,12.01
2022-10-24T01:17:53.522Z,12.02
2022-10-24T01:20:58.331Z,12.02
2022-10-24T01:23:56.326Z,12.03
2022-10-24T01:26:54.736Z,12.05
2022-10-24T01:29:46.422Z,12.07
2022-10-24T01:32:29.652Z,12.09
2022-10-24T01:35:08.039Z,12.11
2022-10-24T01:37:44.900Z,12.13
2022-10-24T01:40:21.575Z,12.16
2022-10-24T01:42:55.612Z,12.18
2022-10-24T01:45:31.386Z,12.19
2022-10-24T01:48:06.401Z,12.20
2022-10-24T01:50:39.479Z,12.22
2022-10-24T01:53:13.193Z,12.23
2022-10-24T01:55:46.806Z,12.25
2022-10-24T01:58:17.816Z,12.28
2022-10-24T02:00:51.332Z,12.29
2022-10-24T02:03:28.101Z,12.28
2022-10-24T02:06:04.748Z,12.28
2022-10-24T02:08:40.243Z,12.28
2022-10-24T02:11:12.825Z,12.29
2022-10-24T02:13:49.085Z,12.28
2022-10-24T02:16:21.596Z,12.27
2022-10-24T02:18:56.063Z,12.26
2022-10-24T02:21:34.694Z,12.23
2022-10-24T02:24:11.399Z,12.22
2022-10-24T02:26:48.609Z,12.22
2022-10-24T02:29:25.695Z,12.20
2022-10-24T02:31:59.649Z,12.21
2022-10-24T02:34:35.336Z,12.20
2022-10-24T02:37:07.788Z,12.19
2022-10-24T02:39:41.190Z,12.19
2022-10-24T02:42:15.514Z,12.18
2022-10-24T02:44:48.226Z,12.17
2022-10-24T02:47:24.120Z,12.15
2022-10-24T02:49:55.556Z,12.10
2022-10-24T02:52:26.571Z,12.05
2022-10-24T02:54:57.645Z,12.00
2022-10-24T02:57:28.616Z,11.96
2022-10-24T02:59:59.580Z,11.95
2022-10-24T03:02:30.563Z,11.92
2022-10-24T03:05:01.904Z,11.86
2022-10-24T03:07:33.009Z,11.83
2022-10-24T03:10:04.209Z,11.79
2022-10-24T03:12:35.350Z,11.75
2022-10-24T03:15:07.289Z,11.71
2022-10-24T03:17:38.554Z,11.65
2022-10-24T03:20:11.241Z,11.61
2022-10-24T03:22:42.791Z,11.57
2022-10-24T03:25:13.775Z,11.53
2022-10-24T03:27:45.637Z,11.50
2022-10-24T03:30:17.210Z,11.48
2022-10-24T03:32:48.422Z,11.45
2022-10-24T03:35:19.836Z,11.42
2022-10-24T03:37:50.824Z,11.39
2022-10-24T03:40:21.817Z,11.37
2022-10-24T03:42:53.238Z,11.35
2022-10-24T03:45:24.297Z,11.32
2022-10-24T03:47:55.735Z,11.32
2022-10-24T03:50:26.745Z,11.30
2022-10-24T03:52:57.948Z,11.30
2022-10-24T03:55:30.008Z,11.31
2022-10-24T03:58:01.416Z,11.34
2022-10-24T04:00:34.988Z,11.36
2022-10-24T04:03:06.125Z,11.39
2022-10-24T04:08:13.374Z,11.45
2022-10-24T04:10:44.370Z,11.46
2022-10-24T04:13:15.464Z,11.46
2022-10-24T04:15:46.838Z,11.48
2022-10-24T04:18:17.837Z,11.48
2022-10-24T04:20:48.866Z,11.47
2022-10-24T04:23:19.844Z,11.49
2022-10-24T04:25:51.305Z,11.53
2022-10-24T04:28:22.383Z,11.55
2022-10-24T04:30:58.584Z,11.55
2022-10-24T04:33:29.706Z,11.54
2022-10-24T04:36:00.741Z,11.53
2022-10-24T04:38:33.659Z,11.54
2022-10-24T04:41:07.325Z,11.53
2022-10-24T04:43:41.108Z,11.53
2022-10-24T04:46:12.075Z,11.52
2022-10-24T04:48:43.202Z,11.51
2022-10-24T04:51:18.542Z,11.52
2022-10-24T04:53:52.737Z,11.53
2022-10-24T04:56:25.970Z,11.54
2022-10-24T04:58:56.972Z,11.54
2022-10-24T05:01:28.146Z,11.54
2022-10-24T05:03:59.202Z,11.53
2022-10-24T05:06:30.301Z,11.53
2022-10-24T05:09:01.293Z,11.56
2022-10-24T05:11:33.158Z,11.58
2022-10-24T05:14:04.393Z,11.59
2022-10-24T05:16:35.534Z,11.59
2022-10-24T05:19:08.798Z,11.60
2022-10-24T05:21:40.351Z,11.61
2022-10-24T05:24:11.588Z,11.63
2022-10-24T05:26:42.786Z,11.65
2022-10-24T05:29:13.895Z,11.69
2022-10-24T05:31:44.903Z,11.70
2022-10-24T05:34:15.947Z,11.72
2022-10-24T05:36:47.120Z,11.73
2022-10-24T05:39:18.368Z,11.73
2022-10-24T05:41:52.162Z,11.72
2022-10-24T05:44:26.114Z,11.75
2022-10-24T05:46:57.674Z,11.78
2022-10-24T05:49:28.761Z,11.84
2022-10-24T05:52:00.021Z,11.88
2022-10-24T05:54:42.535Z,11.94
2022-10-24T05:57:22.453Z,12.00
2022-10-24T05:59:53.478Z,12.03
2022-10-24T06:02:28.214Z,12.06
2022-10-24T06:04:59.898Z,12.10
2022-10-24T06:07:31.723Z,12.14
2022-10-24T06:10:03.806Z,12.16
2022-10-24T06:12:36.522Z,12.17
2022-10-24T06:15:11.117Z,12.21
2022-10-24T06:17:42.498Z,12.24
2022-10-24T06:20:13.807Z,12.26
2022-10-24T06:22:46.878Z,12.26
2022-10-24T06:25:18.597Z,12.28
2022-10-24T06:27:49.818Z,12.31
2022-10-24T06:30:21.253Z,12.33
2022-10-24T06:32:52.495Z,12.35
2022-10-24T06:35:24.862Z,12.34
2022-10-24T06:37:56.510Z,12.35
2022-10-24T06:40:28.599Z,12.37
2022-10-24T06:43:00.375Z,12.41
2022-10-24T06:45:33.833Z,12.44
2022-10-24T06:48:05.517Z,12.50
2022-10-24T06:50:40.841Z,12.58
2022-10-24T06:53:13.185Z,12.64
2022-10-24T06:55:44.757Z,12.69
2022-10-24T06:58:16.786Z,12.74
2022-10-24T07:00:48.161Z,12.79
2022-10-24T07:03:19.474Z,12.82
2022-10-24T07:05:51.234Z,12.85
2022-10-24T07:08:25.591Z,12.87
2022-10-24T07:11:11.958Z,12.87
2022-10-24T07:13:43.522Z,12.86
2022-10-24T07:16:15.486Z,12.85
2022-10-24T07:18:47.636Z,12.82
2022-10-24T07:21:21.855Z,12.83
2022-10-24T07:23:55.048Z,12.86
2022-10-24T07:26:31.202Z,12.89
2022-10-24T07:29:04.850Z,12.92
2022-10-24T07:31:37.866Z,12.94
2022-10-24T07:34:10.891Z,12.95
2022-10-24T07:36:43.809Z,12.98
2022-10-24T07:39:16.146Z,12.98
2022-10-24T07:41:47.441Z,12.95
2022-10-24T07:44:19.043Z,12.92
2022-10-24T07:46:50.783Z,12.92
2022-10-24T07:49:30.151Z,12.93
2022-10-24T07:52:07.225Z,12.90
2022-10-24T07:54:44.861Z,12.90
2022-10-24T07:57:16.175Z,12.93
2022-10-24T07:59:47.623Z,12.97
2022-10-24T08:02:19.826Z,13.00
2022-10-24T08:04:53.978Z,13.04
2022-10-24T08:07:25.476Z,13.11
2022-10-24T08:09:56.973Z,13.20
2022-10-24T08:12:28.449Z,13.26
2022-10-24T08:15:00.640Z,13.35
2022-10-24T08:17:33.577Z,13.42
2022-10-24T08:20:05.406Z,13.48
2022-10-24T08:22:36.959Z,13.53
2022-10-24T08:25:11.362Z,13.60
2022-10-24T08:30:20.400Z,13.60
2022-10-24T08:32:51.697Z,13.62
2022-10-24T08:35:23.627Z,13.62
2022-10-24T08:37:55.093Z,13.61
2022-10-24T08:40:26.976Z,13.63
2022-10-24T08:42:58.288Z,13.62
2022-10-24T08:45:37.155Z,13.62
2022-10-24T08:48:14.599Z,13.61
2022-10-24T08:50:52.751Z,13.66
2022-10-24T08:53:29.177Z,13.74
2022-10-24T08:56:35.131Z,13.82
2022-10-24T08:59:08.184Z,13.91
2022-10-24T09:01:45.399Z,14.01
2022-10-24T09:04:21.212Z,14.21
2022-10-24T09:06:55.794Z,14.51
2022-10-24T09:09:31.575Z,14.80
2022-10-24T09:12:05.203Z,15.13
2022-10-24T09:14:40.046Z,15.44
2022-10-24T09:17:20.320Z,15.72
2022-10-24T09:19:54.316Z,15.89
2022-10-24T09:22:28.295Z,15.97
2022-10-24T09:25:03.227Z,16.09
2022-10-24T09:27:37.606Z,16.17
2022-10-24T09:30:16.741Z,16.33
2022-10-24T09:32:49.163Z,16.50
2022-10-24T09:35:24.022Z,16.66
2022-10-24T09:37:56.656Z,16.76
2022-10-24T09:40:31.715Z,16.78
2022-10-24T09:43:14.617Z,16.77
2022-10-24T09:45:47.903Z,16.76
2022-10-24T09:48:27.576Z,16.75
2022-10-24T09:51:04.247Z,16.68
2022-10-24T09:53:37.801Z,16.61
2022-10-24T09:56:13.869Z,16.56
2022-10-24T09:58:45.519Z,16.54
2022-10-24T10:01:23.953Z,16.56
2022-10-24T10:04:10.046Z,16.57
2022-10-24T10:06:47.140Z,16.59
2022-10-24T10:09:25.584Z,16.62
2022-10-24T10:12:03.584Z,16.65
2022-10-24T10:14:41.618Z,16.68
2022-10-24T10:17:25.613Z,16.69
2022-10-24T10:19:57.862Z,16.66
2022-10-24T10:22:31.912Z,16.62
2022-10-24T10:25:03.677Z,16.63
2022-10-24T10:27:37.935Z,16.62
2022-10-24T10:30:30.442Z,16.67
2022-10-24T10:33:24.912Z,16.76
2022-10-24T10:36:04.471Z,16.83
2022-10-24T10:38:49.578Z,16.94
2022-10-24T10:41:35.225Z,17.07
2022-10-24T10:44:24.503Z,17.21
2022-10-24T10:47:07.313Z,17.32
2022-10-24T10:49:42.487Z,17.40
2022-10-24T10:52:14.108Z,17.49
2022-10-24T10:55:10.862Z,17.59
2022-10-24T10:57:49.484Z,17.67
2022-10-24T11:00:28.817Z,17.73
2022-10-24T11:03:16.950Z,17.74
2022-10-24T11:06:05.176Z,17.70
2022-10-24T11:09:04.933Z,17.66
2022-10-24T11:11:41.138Z,17.59
2022-10-24T11:14:23.637Z,17.58
2022-10-24T11:16:58.157Z,17.58
2022-10-24T11:19:35.170Z,17.58
2022-10-24T11:22:11.869Z,17.56
2022-10-24T11:24:48.360Z,17.56
2022-10-24T11:27:29.504Z,17.50
2022-10-24T11:30:06.824Z,17.47
2022-10-24T11:32:44.784Z,17.44
2022-10-24T11:35:26.571Z,17.44
2022-10-24T11:38:03.280Z,17.43
2022-10-24T11:40:36.804Z,17.44
2022-10-24T11:43:17.416Z,17.44
2022-10-24T11:45:55.732Z,17.46
2022-10-24T11:48:35.654Z,17.48
2022-10-24T11:51:17.749Z,17.53
2022-10-24T11:53:56.978Z,17.55
2022-10-24T11:56:34.861Z,17.57
2022-10-24T11:59:08.784Z,17.63
2022-10-24T12:02:16.685Z,17.71
2022-10-24T12:05:23.896Z,17.81
2022-10-24T12:08:28.980Z,17.93
2022-10-24T12:11:23.787Z,18.08
2022-10-24T12:14:23.027Z,18.22
2022-10-24T12:17:15.895Z,18.37
2022-10-24T12:19:50.693Z,18.49
2022-10-24T12:25:16.294Z,18.65
2022-10-24T12:27:53.746Z,18.65
2022-10-24T12:30:27.588Z,18.66
2022-10-24T12:33:09.879Z,18.67
2022-10-24T12:35:56.519Z,18.68
2022-10-24T12:39:04.854Z,18.70
2022-10-24T12:41:44.797Z,18.72
2022-10-24T12:44:51.782Z,18.71
2022-10-24T12:48:05.387Z,18.69
2022-10-24T12:50:57.435Z,18.64
2022-10-24T12:54:00.686Z,18.59
2022-10-24T12:56:33.200Z,18.56
2022-10-24T12:59:19.910Z,18.52
2022-10-24T13:02:42.774Z,18.43
2022-10-24T13:05:44.462Z,18.38
2022-10-24T13:08:43.190Z,18.35
2022-10-24T13:11:32.440Z,18.32
2022-10-24T13:14:21.501Z,18.31
2022-10-24T13:17:03.433Z,18.32
2022-10-24T13:19:38.701Z,18.33
2022-10-24T13:22:30.821Z,18.34
2022-10-24T13:25:18.478Z,18.33
2022-10-24T13:28:27.374Z,18.31
2022-10-24T13:31:29.683Z,18.29
2022-10-24T13:34:17.918Z,18.28
2022-10-24T13:36:51.954Z,18.27
2022-10-24T13:39:31.119Z,18.25
2022-10-24T13:42:07.782Z,18.24
2022-10-24T13:44:46.689Z,18.22
2022-10-24T13:47:22.506Z,18.20
2022-10-24T13:50:01.907Z,18.17
2022-10-24T13:52:39.772Z,18.14
2022-10-24T13:55:24.806Z,18.12
2022-10-24T13:58:13.376Z,18.06
2022-10-24T14:00:58.730Z,18.02
2022-10-24T14:03:32.569Z,17.98
2022-10-24T14:06:08.458Z,17.96
2022-10-24T14:11:40.672Z,17.95
2022-10-24T14:14:26.849Z,17.95
2022-10-24T14:17:23.649Z,17.96
2022-10-24T14:19:59.341Z,17.98
2022-10-24T14:22:37.091Z,17.96
2022-10-24T14:25:24.240Z,17.92
2022-10-24T14:27:57.415Z,17.87
2022-10-24T14:30:34.499Z,17.88
2022-10-24T14:33:23.756Z,17.89
2022-10-24T14:35:57.963Z,17.87
2022-10-24T14:38:33.915Z,17.87
2022-10-24T14:41:09.617Z,17.86
2022-10-24T14:43:42.209Z,17.84
2022-10-24T14:46:35.525Z,17.79
2022-10-24T14:49:30.645Z,17.77
2022-10-24T14:52:09.562Z,17.74
2022-10-24T14:54:45.525Z,17.70
2022-10-24T14:57:23.144Z,17.67
2022-10-24T14:59:56.506Z,17.64
2022-10-24T15:02:32.856Z,17.60
2022-10-24T15:05:32.739Z,17.57
2022-10-24T15:08:28.863Z,17.53
2022-10-24T15:11:21.680Z,17.48
2022-10-24T15:14:06.343Z,17.42
2022-10-24T15:16:39.266Z,17.39
2022-10-24T15:19:19.497Z,17.36
2022-10-24T15:21:51.049Z,17.31
2022-10-24T15:24:29.114Z,17.28
2022-10-24T15:27:14.014Z,17.24
2022-10-24T15:29:45.199Z,17.19
2022-10-24T15:32:19.593Z,17.16
2022-10-24T15:34:56.742Z,17.12
2022-10-24T15:37:28.697Z,17.09
2022-10-24T15:40:17.968Z,17.05
2022-10-24T15:42:49.754Z,17.02
2022-10-24T15:45:21.703Z,16.99
2022-10-24T15:47:54.220Z,16.94
2022-10-24T15:50:26.965Z,16.89
2022-10-24T15:52:59.501Z,16.86
2022-10-24T15:55:31.871Z,16.81
2022-10-24T15:58:03.322Z,16.78
2022-10-24T16:00:35.629Z,16.75
2022-10-24T16:03:08.775Z,16.73
2022-10-24T16:05:42.845Z,16.71
2022-10-24T16:08:21.006Z,16.68
2022-10-24T16:10:53.885Z,16.64
2022-10-24T16:13:26.135Z,16.63
2022-10-24T16:15:57.308Z,16.63
2022-10-24T16:18:28.455Z,16.61
2022-10-24T16:21:00.141Z,16.61
2022-10-24T16:23:31.328Z,16.60
2022-10-24T16:26:02.829Z,16.61
2022-10-24T16:28:34.826Z,16.59
2022-10-24T16:31:07.416Z,16.55
2022-10-24T16:33:39.002Z,16.52
2022-10-24T16:36:10.984Z,16.51
2022-10-24T16:38:42.432Z,16.49
2022-10-24T16:41:21.871Z,16.46
2022-10-24T16:43:54.686Z,16.45
2022-10-24T16:46:28.071Z,16.44
2022-10-24T16:49:02.534Z,16.43
2022-10-24T16:51:34.327Z,16.39
2022-10-24T16:54:05.410Z,16.36
2022-10-24T16:56:36.953Z,16.33
2022-10-24T16:59:10.403Z,16.30
2022-10-24T17:01:45.244Z,16.28
2022-10-24T17:04:16.451Z,16.25
2022-10-24T17:06:47.835Z,16.23
2022-10-24T17:09:19.566Z,16.21
2022-10-24T17:11:51.124Z,16.19
2022-10-24T17:14:22.762Z,16.15
2022-10-24T17:16:54.459Z,16.12
2022-10-24T17:19:26.212Z,16.09
2022-10-24T17:21:57.809Z,16.07
2022-10-24T17:24:30.211Z,16.05
2022-10-24T17:27:03.141Z,16.04
2022-10-24T17:29:36.407Z,16.02
2022-10-24T17:32:08.746Z,16.01
2022-10-24T17:34:41.900Z,15.98
2022-10-24T17:37:26.181Z,15.95
2022-10-24T17:40:03.527Z,15.95
2022-10-24T17:42:35.998Z,15.93
2022-10-24T17:45:14.357Z,15.93
2022-10-24T17:50:19.179Z,15.93
2022-10-24T17:52:52.319Z,15.93
2022-10-24T17:55:45.603Z,15.90
2022-10-24T17:58:17.515Z,15.89
2022-10-24T18:00:49.137Z,15.88
2022-10-24T18:03:20.632Z,15.87
2022-10-24T18:05:51.712Z,15.88
2022-10-24T18:08:23.595Z,15.87
2022-10-24T18:10:55.667Z,15.86
2022-10-24T18:13:27.046Z,15.85
2022-10-24T18:15:58.288Z,15.84
2022-10-24T18:18:30.303Z,15.82
2022-10-24T18:21:10.997Z,15.81
2022-10-24T18:23:42.721Z,15.78
2022-10-24T18:26:15.801Z,15.79
2022-10-24T18:28:48.929Z,15.77
2022-10-24T18:31:22.205Z,15.78
2022-10-24T18:33:53.463Z,15.77
2022-10-24T18:37:14.065Z,15.77
2022-10-24T18:39:45.569Z,15.77
2022-10-24T18:42:26.828Z,15.78
2022-10-24T18:44:59.455Z,15.78
2022-10-24T18:47:32.555Z,15.80
2022-10-24T18:50:04.732Z,15.81
2022-10-24T18:52:48.108Z,15.82
2022-10-24T18:55:22.913Z,15.81
2022-10-24T18:57:55.013Z,15.81
2022-10-24T19:00:28.206Z,15.82
2022-10-24T19:03:26.194Z,15.80
2022-10-24T19:06:06.326Z,15.78
2022-10-24T19:08:37.949Z,15.76
2022-10-24T19:13:46.284Z,15.76
2022-10-24T19:16:28.736Z,15.75
2022-10-24T19:19:03.805Z,15.73
2022-10-24T19:21:35.327Z,15.71
2022-10-24T19:24:07.155Z,15.70
2022-10-24T19:33:30.434Z,15.70
2022-10-24T19:36:05.165Z,15.66
2022-10-24T19:38:36.446Z,15.65
2022-10-24T19:41:11.417Z,15.61
2022-10-24T19:43:42.744Z,15.56
2022-10-24T19:46:42.278Z,15.51
2022-10-24T19:49:13.627Z,15.46
2022-10-24T19:51:45.048Z,15.41
2022-10-24T19:54:16.271Z,15.38
2022-10-24T19:56:49.467Z,15.34
2022-10-24T19:59:26.003Z,15.31
2022-10-24T20:04:31.525Z,15.26
2022-10-24T20:07:03.006Z,15.24
2022-10-24T20:09:34.057Z,15.24
2022-10-24T20:12:06.179Z,15.25
2022-10-24T20:15:02.835Z,15.26
2022-10-24T20:17:33.911Z,15.27
2022-10-24T20:20:05.470Z,15.30
2022-10-24T20:22:40.545Z,15.32
2022-10-24T20:25:10.433Z,15.34
2022-10-24T20:31:18.076Z,15.38
2022-10-24T20:33:49.211Z,15.39
2022-10-24T20:36:22.177Z,15.41
2022-10-24T20:38:53.383Z,15.43
2022-10-24T20:41:24.442Z,15.44
2022-10-24T20:48:59.383Z,15.47
2022-10-24T20:51:30.606Z,15.47
2022-10-24T20:54:02.007Z,15.49
2022-10-24T20:56:33.080Z,15.52
2022-10-24T20:59:04.641Z,15.53
2022-10-24T21:01:35.999Z,15.54
2022-10-24T21:04:07.249Z,15.58
2022-10-24T21:06:38.367Z,15.59
2022-10-24T21:09:09.829Z,15.60
2022-10-24T21:11:40.865Z,15.62
2022-10-24T21:14:15.075Z,15.64
2022-10-24T21:16:46.494Z,15.67
2022-10-24T21:19:18.147Z,15.68
2022-10-24T21:21:49.464Z,15.69
2022-10-24T21:24:20.654Z,15.70
2022-10-24T21:26:51.737Z,15.72
2022-10-24T21:29:38.076Z,15.75
2022-10-24T21:32:09.380Z,15.77
2022-10-24T21:34:40.405Z,15.78
2022-10-24T21:37:11.733Z,15.80
2022-10-24T21:39:42.791Z,15.81
2022-10-24T21:42:14.111Z,15.83
2022-10-24T21:44:45.176Z,15.85
2022-10-24T21:47:16.380Z,15.86
2022-10-24T21:50:12.817Z,15.87
2022-10-24T21:52:44.489Z,15.88
2022-10-24T21:55:15.916Z,15.88
2022-10-24T21:57:47.166Z,15.89
2022-10-24T22:00:19.070Z,15.91
2022-10-24T22:02:50.982Z,15.93
2022-10-24T22:05:22.457Z,15.95
2022-10-24T22:07:53.597Z,15.96
2022-10-24T22:10:26.117Z,15.99
2022-10-24T22:12:57.261Z,16.01
2022-10-24T22:15:28.213Z,16.02
2022-10-24T22:17:59.076Z,16.04
2022-10-24T22:20:29.892Z,16.04
2022-10-24T22:23:00.736Z,16.05
2022-10-24T22:25:31.961Z,16.04
2022-10-24T22:28:02.856Z,16.05
2022-10-24T22:30:33.680Z,16.04
2022-10-24T22:33:05.514Z,16.04
2022-10-24T22:35:38.657Z,16.04
2022-10-24T22:38:11.538Z,16.02
2022-10-24T22:40:43.327Z,16.02
2022-10-24T22:43:14.991Z,16.01
2022-10-24T22:45:55.661Z,16.01
2022-10-24T22:48:31.359Z,16.01
2022-10-24T22:51:02.985Z,15.99
2022-10-24T22:53:34.997Z,15.97
2022-10-24T22:56:14.609Z,15.94
2022-10-24T22:58:47.345Z,15.92
2022-10-24T23:01:30.296Z,15.91
2022-10-24T23:04:16.866Z,15.88
2022-10-24T23:06:52.920Z,15.86
2022-10-24T23:09:23.875Z,15.84
2022-10-24T23:11:56.036Z,15.82
2022-10-24T23:14:27.938Z,15.80
2022-10-24T23:17:01.933Z,15.80
2022-10-24T23:19:34.664Z,15.80
2022-10-24T23:22:20.766Z,15.80
2022-10-24T23:24:55.284Z,15.82
2022-10-24T23:27:38.118Z,15.82
2022-10-24T23:30:18.835Z,15.81
2022-10-24T23:32:52.179Z,15.79
2022-10-24T23:35:25.270Z,15.79
2022-10-24T23:37:57.088Z,15.79
2022-10-24T23:40:34.946Z,15.78
2022-10-24T23:43:15.352Z,15.77
2022-10-24T23:45:56.630Z,15.76
2022-10-24T23:48:46.469Z,15.75
2022-10-24T23:51:24.727Z,15.74
2022-10-24T23:53:57.575Z,15.72
2022-10-24T23:56:30.229Z,15.71
2022-10-24T23:59:01.570Z,15.70
